createdAt,value
2018-11-13T00:00:27.698Z,31.93
2018-11-13T00:02:58.815Z,33.70
2018-11-13T00:05:29.888Z,33.73
2018-11-13T00:08:00.730Z,35.37
2018-11-13T00:10:31.569Z,34.80
2018-11-13T00:13:03.062Z,33.80
2018-11-13T00:15:33.909Z,34.00
2018-11-13T00:18:04.930Z,34.30
2018-11-13T00:20:35.804Z,32.83
2018-11-13T00:23:07.078Z,35.93
2018-11-13T00:25:37.949Z,35.80
2018-11-13T00:28:08.758Z,35.30
2018-11-13T00:30:39.697Z,33.57
2018-11-13T00:33:10.541Z,34.87
2018-11-13T00:35:41.439Z,35.40
2018-11-13T00:38:12.469Z,35.43
2018-11-13T00:40:43.298Z,35.77
2018-11-13T00:43:14.142Z,35.50
2018-11-13T00:45:45.218Z,35.00
2018-11-13T00:48:15.814Z,34.53
2018-11-13T00:50:46.772Z,34.40
2018-11-13T00:53:17.513Z,34.80
2018-11-13T00:55:48.343Z,37.50
2018-11-13T00:58:19.224Z,35.70
2018-11-13T01:00:50.164Z,35.60
2018-11-13T01:03:21.128Z,35.23
2018-11-13T01:05:52.297Z,35.17
2018-11-13T01:08:22.760Z,35.03
2018-11-13T01:10:53.637Z,34.10
2018-11-13T01:13:24.507Z,33.87
2018-11-13T01:15:55.468Z,34.03
2018-11-13T01:18:26.619Z,33.37
2018-11-13T01:20:57.429Z,34.97
2018-11-13T01:23:28.397Z,35.00
2018-11-13T01:25:59.267Z,34.73
2018-11-13T01:28:30.199Z,33.13
2018-11-13T01:31:01.035Z,35.27
2018-11-13T01:33:31.872Z,36.50
2018-11-13T01:36:02.722Z,36.57
2018-11-13T01:38:33.540Z,35.07
2018-11-13T01:41:04.440Z,33.80
2018-11-13T01:43:35.222Z,35.97
2018-11-13T01:46:06.292Z,35.33
2018-11-13T01:48:37.107Z,36.07
2018-11-13T01:51:07.947Z,36.37
2018-11-13T01:53:38.884Z,35.37
2018-11-13T01:56:09.740Z,36.27
2018-11-13T01:58:40.631Z,34.87
2018-11-13T02:01:11.531Z,36.27
2018-11-13T02:03:42.408Z,37.37
2018-11-13T02:06:13.374Z,38.77
2018-11-13T02:08:44.236Z,37.70
2018-11-13T02:11:15.257Z,39.17
2018-11-13T02:13:46.125Z,37.87
2018-11-13T02:16:16.967Z,36.87
2018-11-13T02:18:47.840Z,39.87
2018-11-13T02:21:18.728Z,39.83
2018-11-13T02:23:49.571Z,39.03
2018-11-13T02:26:20.499Z,39.90
2018-11-13T02:28:51.303Z,39.57
2018-11-13T02:31:22.172Z,38.47
2018-11-13T02:33:53.061Z,39.67
2018-11-13T02:36:24.005Z,39.00
2018-11-13T02:38:54.832Z,39.83
2018-11-13T02:41:25.661Z,40.00
2018-11-13T02:43:56.525Z,41.57
2018-11-13T02:46:27.773Z,40.67
2018-11-13T02:48:58.606Z,39.43
2018-11-13T02:51:29.452Z,39.53
2018-11-13T02:54:00.320Z,39.67
2018-11-13T02:56:31.186Z,40.83
2018-11-13T02:59:02.403Z,40.47
2018-11-13T03:01:33.352Z,39.50
2018-11-13T03:04:04.346Z,38.93
2018-11-13T03:06:35.566Z,40.07
2018-11-13T03:09:08.208Z,41.03
2018-11-13T03:11:39.149Z,38.60
2018-11-13T03:14:11.217Z,40.33
2018-11-13T03:16:42.182Z,41.40
2018-11-13T03:19:13.141Z,41.03
2018-11-13T03:21:44.122Z,39.70
2018-11-13T03:24:15.008Z,42.13
2018-11-13T03:26:45.859Z,41.37
2018-11-13T03:29:16.721Z,40.03
2018-11-13T03:31:47.531Z,43.23
2018-11-13T03:34:18.385Z,41.90
2018-11-13T03:36:49.300Z,41.30
2018-11-13T03:39:20.257Z,40.63
2018-11-13T03:41:51.067Z,38.50
2018-11-13T03:44:22.191Z,40.50
2018-11-13T03:46:52.965Z,44.60
2018-11-13T03:49:24.023Z,42.30
2018-11-13T03:51:54.884Z,41.20
2018-11-13T03:54:25.678Z,42.17
2018-11-13T03:56:56.515Z,41.63
2018-11-13T03:59:27.516Z,40.93
2018-11-13T04:01:58.360Z,43.77
2018-11-13T04:04:29.188Z,44.53
2018-11-13T04:07:00.084Z,42.83
2018-11-13T04:09:30.859Z,39.83
2018-11-13T04:12:01.716Z,42.07
2018-11-13T04:14:32.484Z,49.33
2018-11-13T04:17:03.505Z,43.07
2018-11-13T04:19:34.311Z,44.43
2018-11-13T04:22:05.721Z,44.87
2018-11-13T04:24:36.617Z,46.10
2018-11-13T04:27:07.589Z,45.03
2018-11-13T04:29:38.394Z,43.23
2018-11-13T04:32:09.390Z,45.43
2018-11-13T04:34:40.212Z,43.67
2018-11-13T04:37:11.015Z,44.07
2018-11-13T04:39:41.976Z,45.03
2018-11-13T04:42:12.843Z,44.30
2018-11-13T04:44:43.837Z,46.90
2018-11-13T04:47:14.660Z,45.90
2018-11-13T04:49:45.710Z,43.50
2018-11-13T04:52:16.529Z,44.90
2018-11-13T04:54:47.528Z,44.03
2018-11-13T04:57:18.335Z,44.43
2018-11-13T04:59:49.171Z,46.93
2018-11-13T05:02:20.073Z,44.67
2018-11-13T05:04:51.079Z,44.13
2018-11-13T05:07:21.919Z,45.83
2018-11-13T05:09:54.234Z,48.30
2018-11-13T05:12:25.263Z,46.50
2018-11-13T05:14:56.085Z,48.63
2018-11-13T05:17:27.259Z,44.07
2018-11-13T05:19:58.069Z,45.57
2018-11-13T05:22:29.448Z,46.60
2018-11-13T05:25:00.272Z,46.20
2018-11-13T05:27:31.170Z,45.50
2018-11-13T05:30:02.040Z,47.07
2018-11-13T05:32:32.960Z,47.93
2018-11-13T05:35:03.798Z,48.00
2018-11-13T05:37:34.661Z,43.97
2018-11-13T05:40:08.276Z,45.77
2018-11-13T05:42:39.485Z,45.70
2018-11-13T05:45:12.570Z,47.20
2018-11-13T05:47:43.576Z,46.17
2018-11-13T05:50:15.725Z,43.77
2018-11-13T05:52:48.106Z,46.90
2018-11-13T05:55:19.051Z,48.57
2018-11-13T05:57:50.185Z,46.43
2018-11-13T06:00:23.942Z,42.20
2018-11-13T06:02:54.841Z,42.97
2018-11-13T06:05:25.738Z,43.00
2018-11-13T06:07:56.856Z,41.93
2018-11-13T06:10:27.789Z,44.93
2018-11-13T06:12:58.729Z,42.27
2018-11-13T06:15:29.656Z,41.00
2018-11-13T06:18:00.980Z,44.67
2018-11-13T06:20:31.985Z,42.83
2018-11-13T06:23:02.919Z,41.23
2018-11-13T06:25:33.942Z,42.43
2018-11-13T06:28:04.820Z,41.80
2018-11-13T06:30:36.434Z,43.20
2018-11-13T06:33:07.637Z,42.63
2018-11-13T06:35:38.586Z,41.53
2018-11-13T06:38:09.500Z,44.07
2018-11-13T06:40:40.359Z,44.13
2018-11-13T06:43:11.219Z,44.07
2018-11-13T06:45:42.202Z,42.57
2018-11-13T06:48:13.161Z,42.53
2018-11-13T06:50:43.982Z,45.37
2018-11-13T06:53:15.024Z,43.10
2018-11-13T06:55:48.328Z,43.70
2018-11-13T06:58:19.225Z,44.03
2018-11-13T07:00:50.076Z,42.80
2018-11-13T07:03:20.996Z,42.37
2018-11-13T07:05:52.117Z,42.17
2018-11-13T07:08:24.104Z,43.73
2018-11-13T07:10:55.126Z,43.87
2018-11-13T07:13:26.033Z,43.53
2018-11-13T07:15:57.130Z,42.80
2018-11-13T07:18:28.072Z,43.17
2018-11-13T07:20:58.951Z,43.73
2018-11-13T07:23:29.755Z,43.07
2018-11-13T07:26:00.668Z,42.80
2018-11-13T07:28:31.783Z,42.60
2018-11-13T07:31:02.608Z,42.43
2018-11-13T07:33:33.461Z,42.07
2018-11-13T07:36:04.528Z,42.50
2018-11-13T07:38:35.386Z,42.43
2018-11-13T07:41:06.397Z,43.83
2018-11-13T07:43:37.284Z,43.63
2018-11-13T07:46:08.247Z,43.67
2018-11-13T07:48:39.603Z,43.80
2018-11-13T07:51:10.718Z,44.13
2018-11-13T07:53:41.532Z,43.43
2018-11-13T07:56:12.479Z,44.33
2018-11-13T07:58:43.372Z,43.67
2018-11-13T08:01:14.352Z,44.37
2018-11-13T08:03:45.186Z,43.97
2018-11-13T08:06:15.960Z,45.37
2018-11-13T08:08:47.588Z,44.97
2018-11-13T08:11:18.510Z,44.33
2018-11-13T08:13:49.532Z,44.67
2018-11-13T08:16:20.394Z,45.50
2018-11-13T08:18:51.281Z,44.87
2018-11-13T08:21:22.131Z,45.73
2018-11-13T08:23:53.037Z,44.20
2018-11-13T08:26:24.035Z,45.03
2018-11-13T08:28:54.854Z,45.20
2018-11-13T08:31:25.719Z,46.83
2018-11-13T08:33:56.484Z,47.63
2018-11-13T08:36:27.366Z,46.83
2018-11-13T08:38:58.221Z,46.70
2018-11-13T08:41:29.065Z,47.93
2018-11-13T08:44:00.070Z,46.30
2018-11-13T08:46:30.937Z,46.80
2018-11-13T08:49:01.951Z,45.90
2018-11-13T08:51:32.810Z,47.97
2018-11-13T08:54:03.914Z,46.53
2018-11-13T08:56:35.089Z,47.57
2018-11-13T08:59:06.169Z,48.20
2018-11-13T09:01:36.995Z,46.57
2018-11-13T09:04:08.289Z,48.83
2018-11-13T09:06:39.224Z,45.30
2018-11-13T09:09:13.024Z,45.10
2018-11-13T09:11:44.019Z,45.07
2018-11-13T09:14:14.891Z,45.80
2018-11-13T09:16:46.814Z,45.40
2018-11-13T09:19:17.807Z,48.13
2018-11-13T09:21:49.332Z,47.37
2018-11-13T09:24:20.277Z,47.77
2018-11-13T09:26:51.232Z,47.00
2018-11-13T09:29:22.069Z,47.43
2018-11-13T09:31:53.358Z,46.83
2018-11-13T09:34:24.206Z,46.43
2018-11-13T09:36:55.315Z,47.00
2018-11-13T09:39:26.213Z,48.17
2018-11-13T09:41:57.224Z,47.70
2018-11-13T09:44:28.098Z,47.07
2018-11-13T09:46:58.895Z,46.67
2018-11-13T09:49:29.709Z,47.13
2018-11-13T09:52:00.560Z,46.87
2018-11-13T09:54:31.429Z,49.53
2018-11-13T09:57:02.243Z,48.37
2018-11-13T09:59:33.101Z,50.13
2018-11-13T10:02:04.446Z,48.73
2018-11-13T10:04:35.890Z,61.10
2018-11-13T10:07:06.512Z,59.10
2018-11-13T10:09:37.452Z,60.53
2018-11-13T10:12:08.412Z,55.07
2018-11-13T10:14:39.290Z,49.17
2018-11-13T10:17:10.226Z,55.63
2018-11-13T10:19:41.124Z,57.43
2018-11-13T10:22:11.912Z,51.90
2018-11-13T10:24:42.711Z,50.37
2018-11-13T10:27:13.643Z,49.93
2018-11-13T10:29:44.573Z,50.83
2018-11-13T10:32:15.549Z,48.40
2018-11-13T10:34:46.401Z,49.83
2018-11-13T10:37:17.548Z,49.40
2018-11-13T10:39:48.433Z,51.30
2018-11-13T10:42:19.278Z,51.00
2018-11-13T10:44:50.148Z,50.70
2018-11-13T10:47:20.993Z,50.33
2018-11-13T10:49:52.385Z,51.37
2018-11-13T10:52:23.261Z,50.23
2018-11-13T10:54:54.221Z,49.83
2018-11-13T10:57:25.052Z,49.33
2018-11-13T10:59:55.936Z,49.07
2018-11-13T11:02:31.922Z,49.30
2018-11-13T11:05:07.784Z,49.13
2018-11-13T11:07:38.641Z,49.60
2018-11-13T11:10:10.118Z,47.37
2018-11-13T11:12:41.267Z,49.17
2018-11-13T11:15:12.254Z,48.20
2018-11-13T11:17:43.122Z,48.07
2018-11-13T11:20:14.577Z,47.13
2018-11-13T11:22:45.482Z,47.97
2018-11-13T11:25:16.348Z,48.40
2018-11-13T11:27:47.147Z,48.23
2018-11-13T11:30:18.703Z,46.37
2018-11-13T11:32:49.539Z,46.70
2018-11-13T11:35:20.448Z,47.43
2018-11-13T11:37:51.344Z,46.93
2018-11-13T11:40:22.165Z,46.73
2018-11-13T11:42:53.041Z,46.87
2018-11-13T11:45:23.904Z,48.30
2018-11-13T11:47:54.795Z,47.20
2018-11-13T11:50:25.717Z,49.13
2018-11-13T11:52:56.653Z,49.50
2018-11-13T11:55:27.520Z,45.60
2018-11-13T11:57:58.358Z,46.97
2018-11-13T12:00:32.919Z,46.63
2018-11-13T12:03:04.460Z,42.87
2018-11-13T12:05:35.317Z,40.83
2018-11-13T12:08:06.256Z,40.03
2018-11-13T12:10:37.121Z,39.83
2018-11-13T12:13:07.912Z,38.33
2018-11-13T12:15:38.801Z,40.33
2018-11-13T12:18:09.653Z,38.10
2018-11-13T12:20:40.524Z,41.07
2018-11-13T12:23:13.101Z,40.97
2018-11-13T12:25:44.170Z,40.80
2018-11-13T12:28:16.172Z,40.23
2018-11-13T12:30:47.268Z,37.73
2018-11-13T12:33:18.373Z,40.77
2018-11-13T12:35:49.262Z,40.43
2018-11-13T12:38:20.165Z,42.00
2018-11-13T12:40:51.072Z,42.30
2018-11-13T12:43:21.943Z,45.03
2018-11-13T12:45:53.024Z,45.03
2018-11-13T12:48:24.153Z,48.50
2018-11-13T12:51:03.233Z,48.60
2018-11-13T12:53:35.135Z,49.30
2018-11-13T12:56:06.072Z,49.40
2018-11-13T12:58:37.142Z,50.07
2018-11-13T13:01:08.057Z,47.90
2018-11-13T13:03:39.223Z,49.20
2018-11-13T13:06:10.589Z,49.67
2018-11-13T13:08:41.509Z,50.53
2018-11-13T13:11:12.430Z,52.40
2018-11-13T13:13:44.212Z,51.30
2018-11-13T13:16:16.522Z,51.07
2018-11-13T13:18:47.377Z,55.17
2018-11-13T13:21:18.581Z,50.63
2018-11-13T13:23:49.769Z,42.67
2018-11-13T13:26:21.579Z,37.57
2018-11-13T13:28:52.618Z,29.07
2018-11-13T13:31:24.131Z,21.20
2018-11-13T13:33:55.130Z,17.53
2018-11-13T13:36:26.301Z,15.30
2018-11-13T13:38:57.391Z,11.13
2018-11-13T13:41:28.399Z,10.80
2018-11-13T13:43:59.263Z,9.53
2018-11-13T13:46:31.314Z,8.90
2018-11-13T13:49:02.288Z,7.57
2018-11-13T13:51:33.257Z,7.97
2018-11-13T13:54:04.490Z,7.50
2018-11-13T13:56:35.682Z,7.13
2018-11-13T13:59:06.758Z,7.53
2018-11-13T14:01:37.762Z,7.80
2018-11-13T14:04:08.741Z,8.30
2018-11-13T14:06:39.740Z,7.80
2018-11-13T14:09:11.624Z,7.10
2018-11-13T14:11:42.758Z,7.43
2018-11-13T14:14:14.092Z,8.10
2018-11-13T14:16:45.297Z,7.67
2018-11-13T14:19:16.313Z,7.63
2018-11-13T14:21:47.313Z,7.40
2018-11-13T14:24:18.317Z,7.63
2018-11-13T14:26:49.325Z,8.03
2018-11-13T14:29:20.533Z,7.40
2018-11-13T14:31:51.539Z,7.40
2018-11-13T14:34:22.457Z,7.10
2018-11-13T14:36:53.630Z,8.43
2018-11-13T14:39:25.614Z,8.03
2018-11-13T14:41:56.607Z,7.07
2018-11-13T14:44:27.702Z,8.93
2018-11-13T14:46:59.785Z,9.50
2018-11-13T14:49:31.021Z,10.73
2018-11-13T14:52:02.256Z,10.33
2018-11-13T14:54:33.161Z,9.93
2018-11-13T14:57:04.905Z,9.97
2018-11-13T14:59:35.920Z,9.50
2018-11-13T15:02:07.722Z,9.87
2018-11-13T15:04:38.845Z,9.97
2018-11-13T15:07:09.890Z,9.93
2018-11-13T15:09:41.383Z,10.07
2018-11-13T15:12:12.413Z,10.53
2018-11-13T15:14:43.361Z,11.93
2018-11-13T15:17:14.393Z,12.30
2018-11-13T15:19:45.281Z,13.97
2018-11-13T15:22:16.359Z,23.03
2018-11-13T15:24:47.550Z,20.43
2018-11-13T15:27:25.709Z,14.60
2018-11-13T15:29:56.732Z,14.47
2018-11-13T15:32:27.741Z,10.60
2018-11-13T15:34:59.120Z,10.47
2018-11-13T15:37:30.163Z,13.77
2018-11-13T15:40:01.775Z,13.43
2018-11-13T15:42:32.730Z,12.97
2018-11-13T15:45:04.031Z,12.07
2018-11-13T15:47:35.323Z,18.40
2018-11-13T15:50:08.153Z,12.83
2018-11-13T15:52:39.650Z,14.93
2018-11-13T15:55:11.919Z,12.83
2018-11-13T15:57:43.893Z,19.20
2018-11-13T16:00:21.530Z,13.20
2018-11-13T16:02:52.955Z,12.37
2018-11-13T16:05:35.958Z,11.10
2018-11-13T16:08:08.220Z,10.93
2018-11-13T16:10:39.303Z,11.60
2018-11-13T16:13:10.545Z,11.10
2018-11-13T16:15:41.910Z,12.03
2018-11-13T16:18:14.437Z,12.00
2018-11-13T16:20:46.466Z,11.50
2018-11-13T16:23:17.437Z,11.27
2018-11-13T16:25:48.606Z,12.37
2018-11-13T16:28:20.594Z,12.47
2018-11-13T16:30:51.761Z,11.87
2018-11-13T16:33:23.794Z,12.43
2018-11-13T16:35:54.665Z,12.60
2018-11-13T16:38:26.526Z,11.67
2018-11-13T16:40:57.383Z,12.00
2018-11-13T16:43:28.497Z,11.80
2018-11-13T16:45:59.402Z,11.97
2018-11-13T16:48:30.458Z,11.33
2018-11-13T16:51:01.652Z,11.97
2018-11-13T16:53:36.683Z,11.40
2018-11-13T16:56:08.269Z,12.33
2018-11-13T16:58:39.422Z,11.20
2018-11-13T17:01:11.272Z,11.97
2018-11-13T17:03:42.256Z,13.03
2018-11-13T17:06:13.341Z,11.73
2018-11-13T17:08:44.253Z,12.97
2018-11-13T17:11:15.284Z,12.17
2018-11-13T17:13:46.112Z,11.57
2018-11-13T17:16:17.113Z,12.07
2018-11-13T17:18:49.073Z,13.60
2018-11-13T17:21:20.773Z,13.50
2018-11-13T17:23:52.087Z,14.73
2018-11-13T17:26:23.424Z,14.00
2018-11-13T17:28:54.907Z,15.27
2018-11-13T17:31:27.036Z,15.67
2018-11-13T17:33:59.029Z,15.27
2018-11-13T17:36:30.078Z,15.80
2018-11-13T17:39:01.141Z,16.20
2018-11-13T17:41:32.130Z,16.20
2018-11-13T17:44:03.256Z,15.50
2018-11-13T17:46:34.399Z,15.67
2018-11-13T17:49:05.667Z,15.17
2018-11-13T17:51:36.792Z,16.50
2018-11-13T17:54:07.849Z,15.17
2018-11-13T17:56:39.126Z,15.50
2018-11-13T17:59:10.140Z,17.53
2018-11-13T18:01:41.104Z,19.53
2018-11-13T18:04:12.877Z,18.73
2018-11-13T18:06:43.932Z,20.53
2018-11-13T18:09:15.969Z,15.83
2018-11-13T18:11:47.068Z,16.73
2018-11-13T18:14:18.464Z,16.33
2018-11-13T18:16:49.586Z,16.27
2018-11-13T18:19:20.864Z,20.70
2018-11-13T18:21:52.156Z,18.10
2018-11-13T18:24:23.285Z,16.60
2018-11-13T18:26:54.516Z,25.13
2018-11-13T18:29:25.596Z,15.37
2018-11-13T18:31:56.803Z,18.50
2018-11-13T18:34:27.976Z,16.17
2018-11-13T18:36:59.126Z,25.07
2018-11-13T18:39:30.177Z,15.40
2018-11-13T18:42:01.796Z,18.20
2018-11-13T18:44:32.950Z,21.57
2018-11-13T18:47:04.268Z,34.70
2018-11-13T18:49:35.298Z,28.60
2018-11-13T18:52:06.832Z,20.87
2018-11-13T18:54:38.210Z,20.73
2018-11-13T18:57:09.296Z,19.87
2018-11-13T18:59:40.672Z,14.13
2018-11-13T19:02:12.565Z,14.67
2018-11-13T19:04:44.434Z,14.63
2018-11-13T19:07:17.058Z,31.93
2018-11-13T19:09:49.869Z,14.27
2018-11-13T19:12:22.805Z,15.13
2018-11-13T19:14:54.614Z,15.30
2018-11-13T19:17:25.962Z,13.83
2018-11-13T19:19:57.371Z,15.10
2018-11-13T19:22:28.401Z,14.80
2018-11-13T19:24:59.561Z,15.07
2018-11-13T19:27:31.885Z,16.13
2018-11-13T19:30:03.108Z,14.53
2018-11-13T19:32:34.447Z,14.70
2018-11-13T19:35:06.146Z,14.73
2018-11-13T19:37:38.044Z,14.23
2018-11-13T19:40:15.920Z,14.93
2018-11-13T19:42:47.841Z,14.57
2018-11-13T19:45:19.141Z,15.60
2018-11-13T19:47:50.211Z,16.13
2018-11-13T19:50:22.845Z,14.67
2018-11-13T19:52:54.312Z,25.50
2018-11-13T19:55:26.379Z,21.53
2018-11-13T19:57:58.186Z,23.90
2018-11-13T20:00:32.458Z,20.27
2018-11-13T20:03:04.942Z,42.13
2018-11-13T20:05:36.082Z,58.33
2018-11-13T20:08:08.564Z,16.53
2018-11-13T20:10:40.475Z,15.23
2018-11-13T20:13:12.203Z,15.77
2018-11-13T20:15:43.816Z,15.13
2018-11-13T20:18:15.600Z,15.30
2018-11-13T20:20:46.656Z,14.27
2018-11-13T20:23:17.702Z,14.57
2018-11-13T20:25:48.780Z,22.00
2018-11-13T20:28:19.746Z,16.43
2018-11-13T20:30:50.886Z,16.47
2018-11-13T20:33:21.942Z,15.07
2018-11-13T20:35:53.080Z,15.43
2018-11-13T20:38:24.012Z,14.40
2018-11-13T20:40:55.524Z,41.77
2018-11-13T20:43:27.311Z,69.57
2018-11-13T20:45:59.652Z,51.67
2018-11-13T20:48:31.858Z,31.67
2018-11-13T20:51:03.440Z,17.03
2018-11-13T20:53:35.133Z,15.53
2018-11-13T20:56:06.706Z,14.67
2018-11-13T20:58:38.121Z,24.00
2018-11-13T21:01:09.618Z,26.73
2018-11-13T21:03:40.671Z,22.90
2018-11-13T21:06:11.667Z,15.00
2018-11-13T21:08:43.305Z,19.27
2018-11-13T21:11:15.215Z,14.77
2018-11-13T21:13:47.463Z,13.77
2018-11-13T21:16:19.059Z,18.87
2018-11-13T21:18:50.259Z,23.67
2018-11-13T21:21:22.006Z,21.63
2018-11-13T21:23:54.227Z,28.07
2018-11-13T21:26:25.723Z,22.43
2018-11-13T21:28:56.996Z,14.97
2018-11-13T21:31:28.647Z,12.93
2018-11-13T21:33:59.625Z,10.83
2018-11-13T21:36:31.303Z,31.40
2018-11-13T21:39:03.110Z,19.63
2018-11-13T21:41:34.704Z,15.23
2018-11-13T21:44:06.391Z,11.43
2018-11-13T21:46:37.726Z,10.90
2018-11-13T21:49:09.169Z,10.37
2018-11-13T21:51:40.848Z,10.97
2018-11-13T21:54:12.297Z,10.33
2018-11-13T21:56:43.191Z,10.50
2018-11-13T21:59:14.249Z,10.60
2018-11-13T22:01:45.580Z,10.33
2018-11-13T22:04:16.876Z,10.10
2018-11-13T22:06:49.065Z,10.87
2018-11-13T22:09:20.249Z,11.63
2018-11-13T22:11:51.525Z,12.00
2018-11-13T22:14:22.904Z,11.67
2018-11-13T22:16:54.316Z,12.17
2018-11-13T22:19:25.423Z,11.93
2018-11-13T22:21:56.800Z,14.07
2018-11-13T22:24:27.933Z,13.60
2018-11-13T22:26:58.938Z,12.67
2018-11-13T22:29:29.910Z,12.20
2018-11-13T22:32:00.925Z,18.27
2018-11-13T22:34:32.350Z,60.83
2018-11-13T22:37:03.957Z,28.33
2018-11-13T22:39:35.623Z,12.43
2018-11-13T22:42:07.920Z,11.33
2018-11-13T22:44:39.336Z,10.50
2018-11-13T22:47:10.990Z,10.07
2018-11-13T22:49:43.055Z,10.37
2018-11-13T22:52:14.621Z,10.50
2018-11-13T22:54:46.952Z,12.07
2018-11-13T22:57:18.609Z,10.37
2018-11-13T22:59:50.802Z,9.90
2018-11-13T23:02:22.318Z,10.20
2018-11-13T23:04:53.836Z,9.93
2018-11-13T23:07:25.273Z,10.33
2018-11-13T23:09:56.582Z,10.70
2018-11-13T23:12:27.950Z,9.90
2018-11-13T23:14:59.645Z,10.37
2018-11-13T23:17:32.008Z,10.03
2018-11-13T23:20:03.784Z,12.03
2018-11-13T23:22:35.040Z,11.37
2018-11-13T23:25:07.439Z,11.80
2018-11-13T23:27:38.928Z,11.07
2018-11-13T23:30:20.385Z,10.03
2018-11-13T23:32:52.466Z,13.20
2018-11-13T23:35:24.208Z,10.50
2018-11-13T23:37:57.344Z,10.40
2018-11-13T23:40:30.028Z,9.37
2018-11-13T23:43:01.779Z,10.10
2018-11-13T23:45:33.355Z,17.43
2018-11-13T23:48:04.936Z,9.37
2018-11-13T23:50:36.619Z,10.40
2018-11-13T23:53:08.509Z,10.03
2018-11-13T23:55:40.252Z,23.47
2018-11-13T23:58:11.308Z,10.13
